Shotwick, United Kingdom

4:46 AM BST on September 26, 2017 (GMT +0100)
Neston | | Change Station

Elev 135 ft 53.26 °N, 3.03 °W | Updated 58 seconds ago

Fog
Fog
56.7 °F
Feels Like 56.7 °F
N
0.0
Wind Variable Wind from North
Gusts 0.0 mph

Today
High -- | Low -- °F
--% Chance of Precip.
Yesterday
High -- | Low -- °F
Precip. -- in
Pressure 30.18 in
Visibility 0.1 miles
Clouds Few 400 ft
Mostly Cloudy 2200 ft
Dew Point 56 °F
Humidity 99%
Rainfall 0.00 in
Snow Depth Not available.
7:04 AM 7:00 PM
Waxing Crescent, 32% visible
METAR EGGP 260320Z 09004KT 0200 R27/0200 FG FEW004 BKN022 13/13 Q1022
Pressure 30.18 in
Visibility 0.1 miles
Clouds Few 400 ft
Mostly Cloudy 2200 ft
Dew Point 56 °F
Humidity 99%
Rainfall 0.00 in
Snow Depth Not available.
7:04 AM 7:00 PM
Waxing Crescent, 32% visible
METAR EGGP 260320Z 09004KT 0200 R27/0200 FG FEW004 BKN022 13/13 Q1022

Get Severe Weather Alerts

Thanks for signing up!

Be on the lookout for a verification email in your inbox.

You'll start receiving the daily forecast at 6 AM.

×

10-Day Weather Forecast

×

Almanac

Astronomy

Sep. 26, 2017 Rise Set
Actual Time
Civil Twilight
Nautical Twilight
Astronomical Twilight
Moon
Length of Visible Light
Length of Day
Tomorrow will be .
, % of the Moon is Illuminated

Today's Extremes

Country Highs Country Lows

Community

WunderPhotos

Category 6

Welcome to Category 6. This is the collective home for Weather Underground's featured writeups by Dr. Jeff Masters (right), Bob Henson (left), Chris Burt, and other regular contributors.

Nearby

Air Quality

  Air Quality AQ Index Pollutant
Not available.

Snow Depth

Station Depth Elevation

Earthquake Activity

City Distance Mag. Time & Date
Minimum magnitude displayed is 2.5.

Coastal Water Temperatures

Place Temperature

Stations

Nearby Weather Stations

Station Location Temp. Windchill Dew Point Humidity Wind Precip. Elev Updated Type